sensor_id;sensor_type;location;lat;lon;timestamp;P1;durP1;ratioP1;P2;durP2;ratioP2
12585;SDS011;6358;50.760;0.282;2022-07-24T00:00:16;1.45;;;1.40;;
12585;SDS011;6358;50.760;0.282;2022-07-24T00:02:42;1.85;;;1.42;;
12585;SDS011;6358;50.760;0.282;2022-07-24T00:05:09;1.67;;;1.55;;
12585;SDS011;6358;50.760;0.282;2022-07-24T00:07:35;1.63;;;1.52;;
12585;SDS011;6358;50.760;0.282;2022-07-24T00:10:05;1.40;;;1.30;;
12585;SDS011;6358;50.760;0.282;2022-07-24T00:12:31;1.70;;;1.50;;
12585;SDS011;6358;50.760;0.282;2022-07-24T00:14:58;1.60;;;1.50;;
12585;SDS011;6358;50.760;0.282;2022-07-24T00:17:24;1.50;;;1.40;;
12585;SDS011;6358;50.760;0.282;2022-07-24T00:19:50;1.52;;;1.42;;
12585;SDS011;6358;50.760;0.282;2022-07-24T00:22:16;1.33;;;1.23;;
12585;SDS011;6358;50.760;0.282;2022-07-24T00:24:42;1.50;;;1.40;;
12585;SDS011;6358;50.760;0.282;2022-07-24T00:27:08;2.30;;;1.38;;
12585;SDS011;6358;50.760;0.282;2022-07-24T00:29:34;2.05;;;1.80;;
12585;SDS011;6358;50.760;0.282;2022-07-24T00:32:01;1.63;;;1.48;;
12585;SDS011;6358;50.760;0.282;2022-07-24T00:34:27;1.30;;;1.15;;
12585;SDS011;6358;50.760;0.282;2022-07-24T00:36:53;1.50;;;1.40;;
12585;SDS011;6358;50.760;0.282;2022-07-24T00:39:19;1.40;;;1.30;;
12585;SDS011;6358;50.760;0.282;2022-07-24T00:41:45;2.15;;;1.60;;
12585;SDS011;6358;50.760;0.282;2022-07-24T00:44:12;1.50;;;1.30;;
12585;SDS011;6358;50.760;0.282;2022-07-24T00:46:39;2.78;;;1.60;;
12585;SDS011;6358;50.760;0.282;2022-07-24T00:49:06;2.70;;;1.58;;
12585;SDS011;6358;50.760;0.282;2022-07-24T00:51:33;1.45;;;1.35;;
12585;SDS011;6358;50.760;0.282;2022-07-24T00:54:02;1.60;;;1.50;;
12585;SDS011;6358;50.760;0.282;2022-07-24T00:56:28;1.52;;;1.35;;
12585;SDS011;6358;50.760;0.282;2022-07-24T00:58:54;1.50;;;1.40;;
12585;SDS011;6358;50.760;0.282;2022-07-24T01:01:21;1.95;;;1.40;;
12585;SDS011;6358;50.760;0.282;2022-07-24T01:03:47;1.63;;;1.52;;
12585;SDS011;6358;50.760;0.282;2022-07-24T01:06:13;1.77;;;1.50;;
12585;SDS011;6358;50.760;0.282;2022-07-24T01:08:39;1.40;;;1.30;;
12585;SDS011;6358;50.760;0.282;2022-07-24T01:11:08;1.48;;;1.38;;
12585;SDS011;6358;50.760;0.282;2022-07-24T01:13:34;1.40;;;1.30;;
12585;SDS011;6358;50.760;0.282;2022-07-24T01:16:01;1.40;;;1.30;;
12585;SDS011;6358;50.760;0.282;2022-07-24T01:18:27;2.13;;;1.52;;
12585;SDS011;6358;50.760;0.282;2022-07-24T01:20:53;2.03;;;1.48;;
12585;SDS011;6358;50.760;0.282;2022-07-24T01:23:23;1.60;;;1.50;;
12585;SDS011;6358;50.760;0.282;2022-07-24T01:25:49;1.38;;;1.30;;
12585;SDS011;6358;50.760;0.282;2022-07-24T01:28:16;1.58;;;1.38;;
12585;SDS011;6358;50.760;0.282;2022-07-24T01:30:42;1.40;;;1.30;;
12585;SDS011;6358;50.760;0.282;2022-07-24T01:33:08;1.73;;;1.40;;
12585;SDS011;6358;50.760;0.282;2022-07-24T01:35:34;1.70;;;1.60;;
12585;SDS011;6358;50.760;0.282;2022-07-24T01:38:00;1.40;;;1.30;;
12585;SDS011;6358;50.760;0.282;2022-07-24T01:40:26;1.70;;;1.48;;
12585;SDS011;6358;50.760;0.282;2022-07-24T01:42:53;1.50;;;1.40;;
12585;SDS011;6358;50.760;0.282;2022-07-24T01:45:19;1.50;;;1.40;;
12585;SDS011;6358;50.760;0.282;2022-07-24T01:47:45;1.92;;;1.40;;
12585;SDS011;6358;50.760;0.282;2022-07-24T01:50:12;1.40;;;1.30;;
12585;SDS011;6358;50.760;0.282;2022-07-24T01:52:38;1.70;;;1.60;;
12585;SDS011;6358;50.760;0.282;2022-07-24T01:55:04;1.60;;;1.50;;
12585;SDS011;6358;50.760;0.282;2022-07-24T01:57:31;1.40;;;1.30;;
12585;SDS011;6358;50.760;0.282;2022-07-24T01:59:57;2.40;;;1.48;;
12585;SDS011;6358;50.760;0.282;2022-07-24T02:02:24;1.55;;;1.45;;
12585;SDS011;6358;50.760;0.282;2022-07-24T02:04:50;1.50;;;1.40;;
12585;SDS011;6358;50.760;0.282;2022-07-24T02:07:16;1.33;;;1.23;;
12585;SDS011;6358;50.760;0.282;2022-07-24T02:09:42;1.50;;;1.40;;
12585;SDS011;6358;50.760;0.282;2022-07-24T02:12:08;1.50;;;1.40;;
12585;SDS011;6358;50.760;0.282;2022-07-24T02:14:40;1.90;;;1.30;;
12585;SDS011;6358;50.760;0.282;2022-07-24T02:17:07;1.52;;;1.42;;
12585;SDS011;6358;50.760;0.282;2022-07-24T02:19:33;1.40;;;1.30;;
12585;SDS011;6358;50.760;0.282;2022-07-24T02:21:59;1.50;;;1.40;;
12585;SDS011;6358;50.760;0.282;2022-07-24T02:24:25;1.30;;;1.20;;
12585;SDS011;6358;50.760;0.282;2022-07-24T02:26:51;1.25;;;1.20;;
12585;SDS011;6358;50.760;0.282;2022-07-24T02:29:17;2.92;;;1.40;;
12585;SDS011;6358;50.760;0.282;2022-07-24T02:31:43;1.42;;;1.33;;
12585;SDS011;6358;50.760;0.282;2022-07-24T02:34:09;1.50;;;1.40;;
12585;SDS011;6358;50.760;0.282;2022-07-24T02:36:35;1.50;;;1.40;;
12585;SDS011;6358;50.760;0.282;2022-07-24T02:39:02;1.50;;;1.40;;
12585;SDS011;6358;50.760;0.282;2022-07-24T02:41:28;1.52;;;1.40;;
12585;SDS011;6358;50.760;0.282;2022-07-24T02:43:55;1.65;;;1.40;;
12585;SDS011;6358;50.760;0.282;2022-07-24T02:46:21;1.20;;;1.20;;
12585;SDS011;6358;50.760;0.282;2022-07-24T02:48:47;1.60;;;1.50;;
12585;SDS011;6358;50.760;0.282;2022-07-24T02:51:13;1.60;;;1.50;;
12585;SDS011;6358;50.760;0.282;2022-07-24T02:53:39;1.40;;;1.30;;
12585;SDS011;6358;50.760;0.282;2022-07-24T02:56:05;1.55;;;1.45;;
12585;SDS011;6358;50.760;0.282;2022-07-24T02:58:32;1.48;;;1.40;;
12585;SDS011;6358;50.760;0.282;2022-07-24T03:00:58;1.30;;;1.20;;
12585;SDS011;6358;50.760;0.282;2022-07-24T03:03:24;1.50;;;1.40;;
12585;SDS011;6358;50.760;0.282;2022-07-24T03:05:50;1.40;;;1.30;;
12585;SDS011;6358;50.760;0.282;2022-07-24T03:08:16;1.50;;;1.40;;
12585;SDS011;6358;50.760;0.282;2022-07-24T03:10:42;1.50;;;1.40;;
12585;SDS011;6358;50.760;0.282;2022-07-24T03:13:09;1.35;;;1.20;;
12585;SDS011;6358;50.760;0.282;2022-07-24T03:15:35;1.50;;;1.40;;
12585;SDS011;6358;50.760;0.282;2022-07-24T03:18:01;1.40;;;1.30;;
12585;SDS011;6358;50.760;0.282;2022-07-24T03:20:28;1.73;;;1.50;;
12585;SDS011;6358;50.760;0.282;2022-07-24T03:22:54;1.40;;;1.20;;
12585;SDS011;6358;50.760;0.282;2022-07-24T03:25:20;1.13;;;1.10;;
12585;SDS011;6358;50.760;0.282;2022-07-24T03:27:47;1.40;;;1.40;;
12585;SDS011;6358;50.760;0.282;2022-07-24T03:30:13;1.20;;;1.20;;
12585;SDS011;6358;50.760;0.282;2022-07-24T03:32:39;1.20;;;1.20;;
12585;SDS011;6358;50.760;0.282;2022-07-24T03:35:06;1.23;;;1.23;;
12585;SDS011;6358;50.760;0.282;2022-07-24T03:37:32;1.45;;;1.20;;
12585;SDS011;6358;50.760;0.282;2022-07-24T03:39:58;1.35;;;1.25;;
12585;SDS011;6358;50.760;0.282;2022-07-24T03:42:25;2.15;;;1.42;;
12585;SDS011;6358;50.760;0.282;2022-07-24T03:44:52;1.35;;;1.23;;
12585;SDS011;6358;50.760;0.282;2022-07-24T03:47:18;1.75;;;1.20;;
12585;SDS011;6358;50.760;0.282;2022-07-24T03:49:44;1.20;;;1.20;;
12585;SDS011;6358;50.760;0.282;2022-07-24T03:52:10;1.88;;;1.50;;
12585;SDS011;6358;50.760;0.282;2022-07-24T03:54:36;1.67;;;1.38;;
12585;SDS011;6358;50.760;0.282;2022-07-24T03:57:02;1.38;;;1.25;;
12585;SDS011;6358;50.760;0.282;2022-07-24T03:59:29;1.40;;;1.30;;
12585;SDS011;6358;50.760;0.282;2022-07-24T04:01:55;1.30;;;1.20;;
12585;SDS011;6358;50.760;0.282;2022-07-24T04:04:21;1.70;;;1.38;;
12585;SDS011;6358;50.760;0.282;2022-07-24T04:06:47;1.58;;;1.40;;
12585;SDS011;6358;50.760;0.282;2022-07-24T04:09:13;1.30;;;1.20;;
12585;SDS011;6358;50.760;0.282;2022-07-24T04:11:39;1.42;;;1.30;;
12585;SDS011;6358;50.760;0.282;2022-07-24T04:14:05;1.13;;;1.08;;
12585;SDS011;6358;50.760;0.282;2022-07-24T04:16:32;1.50;;;1.40;;
12585;SDS011;6358;50.760;0.282;2022-07-24T04:18:58;1.30;;;1.20;;
12585;SDS011;6358;50.760;0.282;2022-07-24T04:21:24;1.60;;;1.38;;
12585;SDS011;6358;50.760;0.282;2022-07-24T04:23:50;1.40;;;1.30;;
12585;SDS011;6358;50.760;0.282;2022-07-24T04:26:16;1.50;;;1.40;;
12585;SDS011;6358;50.760;0.282;2022-07-24T04:28:43;1.40;;;1.30;;
12585;SDS011;6358;50.760;0.282;2022-07-24T04:31:09;2.05;;;1.30;;
12585;SDS011;6358;50.760;0.282;2022-07-24T04:33:36;1.55;;;1.20;;
12585;SDS011;6358;50.760;0.282;2022-07-24T04:36:02;1.48;;;1.38;;
12585;SDS011;6358;50.760;0.282;2022-07-24T04:38:29;1.38;;;1.27;;
12585;SDS011;6358;50.760;0.282;2022-07-24T04:40:55;1.10;;;1.10;;
12585;SDS011;6358;50.760;0.282;2022-07-24T04:43:21;1.30;;;1.20;;
12585;SDS011;6358;50.760;0.282;2022-07-24T04:45:47;1.30;;;1.20;;
12585;SDS011;6358;50.760;0.282;2022-07-24T04:48:13;1.40;;;1.30;;
12585;SDS011;6358;50.760;0.282;2022-07-24T04:50:39;1.45;;;1.15;;
12585;SDS011;6358;50.760;0.282;2022-07-24T04:53:06;1.38;;;1.27;;
12585;SDS011;6358;50.760;0.282;2022-07-24T04:55:32;1.20;;;1.20;;
12585;SDS011;6358;50.760;0.282;2022-07-24T04:57:58;1.33;;;1.23;;
12585;SDS011;6358;50.760;0.282;2022-07-24T05:00:24;2.03;;;1.30;;
12585;SDS011;6358;50.760;0.282;2022-07-24T05:02:51;1.10;;;1.10;;
12585;SDS011;6358;50.760;0.282;2022-07-24T05:05:17;1.25;;;1.08;;
12585;SDS011;6358;50.760;0.282;2022-07-24T05:07:43;1.30;;;1.20;;
12585;SDS011;6358;50.760;0.282;2022-07-24T05:10:09;1.30;;;1.20;;
12585;SDS011;6358;50.760;0.282;2022-07-24T05:12:35;1.30;;;1.20;;
12585;SDS011;6358;50.760;0.282;2022-07-24T05:15:02;2.08;;;1.30;;
12585;SDS011;6358;50.760;0.282;2022-07-24T05:17:28;1.30;;;1.20;;
12585;SDS011;6358;50.760;0.282;2022-07-24T05:19:54;1.50;;;1.40;;
12585;SDS011;6358;50.760;0.282;2022-07-24T05:22:20;1.00;;;1.00;;
12585;SDS011;6358;50.760;0.282;2022-07-24T05:24:46;1.15;;;1.00;;
12585;SDS011;6358;50.760;0.282;2022-07-24T05:27:12;1.30;;;1.20;;
12585;SDS011;6358;50.760;0.282;2022-07-24T05:29:39;1.60;;;1.20;;
12585;SDS011;6358;50.760;0.282;2022-07-24T05:32:06;1.00;;;1.00;;
12585;SDS011;6358;50.760;0.282;2022-07-24T05:34:32;1.38;;;1.25;;
12585;SDS011;6358;50.760;0.282;2022-07-24T05:36:58;1.10;;;1.00;;
12585;SDS011;6358;50.760;0.282;2022-07-24T05:39:24;1.20;;;1.20;;
12585;SDS011;6358;50.760;0.282;2022-07-24T05:41:50;1.40;;;1.30;;
12585;SDS011;6358;50.760;0.282;2022-07-24T05:44:16;1.10;;;1.10;;
12585;SDS011;6358;50.760;0.282;2022-07-24T05:46:42;1.40;;;1.30;;
12585;SDS011;6358;50.760;0.282;2022-07-24T05:49:08;1.23;;;1.23;;
12585;SDS011;6358;50.760;0.282;2022-07-24T05:51:35;1.33;;;1.23;;
12585;SDS011;6358;50.760;0.282;2022-07-24T05:54:01;1.25;;;1.15;;
12585;SDS011;6358;50.760;0.282;2022-07-24T05:56:28;1.00;;;1.00;;
12585;SDS011;6358;50.760;0.282;2022-07-24T05:58:54;1.23;;;1.15;;
12585;SDS011;6358;50.760;0.282;2022-07-24T06:01:20;1.60;;;1.35;;
12585;SDS011;6358;50.760;0.282;2022-07-24T06:03:46;1.10;;;1.00;;
12585;SDS011;6358;50.760;0.282;2022-07-24T06:06:12;1.25;;;1.15;;
12585;SDS011;6358;50.760;0.282;2022-07-24T06:08:57;1.15;;;1.08;;
12585;SDS011;6358;50.760;0.282;2022-07-24T06:11:23;1.30;;;1.20;;
12585;SDS011;6358;50.760;0.282;2022-07-24T06:13:49;1.30;;;1.20;;
12585;SDS011;6358;50.760;0.282;2022-07-24T06:16:16;1.75;;;1.10;;
12585;SDS011;6358;50.760;0.282;2022-07-24T06:18:42;1.48;;;1.38;;
12585;SDS011;6358;50.760;0.282;2022-07-24T06:21:08;1.95;;;1.17;;
12585;SDS011;6358;50.760;0.282;2022-07-24T06:23:34;2.60;;;1.08;;
12585;SDS011;6358;50.760;0.282;2022-07-24T06:26:00;1.20;;;1.10;;
12585;SDS011;6358;50.760;0.282;2022-07-24T06:28:26;1.30;;;1.23;;
12585;SDS011;6358;50.760;0.282;2022-07-24T06:30:52;1.27;;;1.17;;
12585;SDS011;6358;50.760;0.282;2022-07-24T06:33:19;1.30;;;1.20;;
12585;SDS011;6358;50.760;0.282;2022-07-24T06:35:45;1.73;;;1.20;;
12585;SDS011;6358;50.760;0.282;2022-07-24T06:38:11;1.23;;;1.20;;
12585;SDS011;6358;50.760;0.282;2022-07-24T06:40:37;1.20;;;1.20;;
12585;SDS011;6358;50.760;0.282;2022-07-24T06:43:04;1.30;;;1.20;;
12585;SDS011;6358;50.760;0.282;2022-07-24T06:45:30;1.38;;;1.27;;
12585;SDS011;6358;50.760;0.282;2022-07-24T06:47:58;1.75;;;1.15;;
12585;SDS011;6358;50.760;0.282;2022-07-24T06:50:24;1.30;;;1.20;;
12585;SDS011;6358;50.760;0.282;2022-07-24T06:52:51;2.45;;;1.30;;
12585;SDS011;6358;50.760;0.282;2022-07-24T06:55:17;2.80;;;1.20;;
12585;SDS011;6358;50.760;0.282;2022-07-24T06:57:43;2.53;;;1.30;;
12585;SDS011;6358;50.760;0.282;2022-07-24T07:00:09;1.40;;;1.25;;
12585;SDS011;6358;50.760;0.282;2022-07-24T07:02:36;2.33;;;1.40;;
12585;SDS011;6358;50.760;0.282;2022-07-24T07:05:04;1.23;;;1.13;;
12585;SDS011;6358;50.760;0.282;2022-07-24T07:07:30;2.30;;;1.48;;
12585;SDS011;6358;50.760;0.282;2022-07-24T07:09:56;3.65;;;1.83;;
12585;SDS011;6358;50.760;0.282;2022-07-24T07:12:22;4.85;;;2.30;;
12585;SDS011;6358;50.760;0.282;2022-07-24T07:14:49;2.78;;;1.92;;
12585;SDS011;6358;50.760;0.282;2022-07-24T07:17:15;3.00;;;2.10;;
12585;SDS011;6358;50.760;0.282;2022-07-24T07:19:42;3.25;;;1.90;;
12585;SDS011;6358;50.760;0.282;2022-07-24T07:22:08;3.55;;;2.08;;
12585;SDS011;6358;50.760;0.282;2022-07-24T07:24:34;3.35;;;2.10;;
12585;SDS011;6358;50.760;0.282;2022-07-24T07:27:00;3.00;;;1.77;;
12585;SDS011;6358;50.760;0.282;2022-07-24T07:29:26;3.17;;;2.20;;
12585;SDS011;6358;50.760;0.282;2022-07-24T07:31:53;2.95;;;1.95;;
12585;SDS011;6358;50.760;0.282;2022-07-24T07:34:19;1.67;;;1.58;;
12585;SDS011;6358;50.760;0.282;2022-07-24T07:36:45;2.42;;;1.67;;
12585;SDS011;6358;50.760;0.282;2022-07-24T07:39:11;2.50;;;1.80;;
12585;SDS011;6358;50.760;0.282;2022-07-24T07:41:37;2.42;;;1.80;;
12585;SDS011;6358;50.760;0.282;2022-07-24T07:44:03;3.03;;;2.00;;
12585;SDS011;6358;50.760;0.282;2022-07-24T07:46:30;4.30;;;1.80;;
12585;SDS011;6358;50.760;0.282;2022-07-24T07:48:56;3.78;;;1.92;;
12585;SDS011;6358;50.760;0.282;2022-07-24T07:51:22;2.55;;;1.90;;
12585;SDS011;6358;50.760;0.282;2022-07-24T07:53:48;3.47;;;2.17;;
12585;SDS011;6358;50.760;0.282;2022-07-24T07:56:14;8.75;;;7.35;;
12585;SDS011;6358;50.760;0.282;2022-07-24T07:58:40;41.60;;;37.65;;
12585;SDS011;6358;50.760;0.282;2022-07-24T08:01:06;27.88;;;25.17;;
12585;SDS011;6358;50.760;0.282;2022-07-24T08:03:33;41.30;;;37.17;;
12585;SDS011;6358;50.760;0.282;2022-07-24T08:05:59;26.50;;;23.88;;
12585;SDS011;6358;50.760;0.282;2022-07-24T08:08:26;15.27;;;13.77;;
12585;SDS011;6358;50.760;0.282;2022-07-24T08:10:52;20.88;;;18.88;;
12585;SDS011;6358;50.760;0.282;2022-07-24T08:13:19;11.88;;;10.70;;
12585;SDS011;6358;50.760;0.282;2022-07-24T08:15:45;7.82;;;7.00;;
12585;SDS011;6358;50.760;0.282;2022-07-24T08:18:11;9.40;;;6.47;;
12585;SDS011;6358;50.760;0.282;2022-07-24T08:20:37;5.93;;;5.30;;
12585;SDS011;6358;50.760;0.282;2022-07-24T08:23:03;5.05;;;4.55;;
12585;SDS011;6358;50.760;0.282;2022-07-24T08:25:30;4.38;;;3.50;;
12585;SDS011;6358;50.760;0.282;2022-07-24T08:27:56;4.00;;;3.60;;
12585;SDS011;6358;50.760;0.282;2022-07-24T08:30:22;4.05;;;3.15;;
12585;SDS011;6358;50.760;0.282;2022-07-24T08:32:50;3.60;;;3.30;;
12585;SDS011;6358;50.760;0.282;2022-07-24T08:35:16;5.18;;;3.00;;
12585;SDS011;6358;50.760;0.282;2022-07-24T08:37:42;3.40;;;2.67;;
12585;SDS011;6358;50.760;0.282;2022-07-24T08:40:09;3.13;;;2.67;;
12585;SDS011;6358;50.760;0.282;2022-07-24T08:42:35;3.35;;;2.78;;
12585;SDS011;6358;50.760;0.282;2022-07-24T08:45:03;5.45;;;2.40;;
12585;SDS011;6358;50.760;0.282;2022-07-24T08:47:29;4.25;;;2.38;;
12585;SDS011;6358;50.760;0.282;2022-07-24T08:49:57;3.22;;;2.20;;
12585;SDS011;6358;50.760;0.282;2022-07-24T08:52:24;4.88;;;2.25;;
12585;SDS011;6358;50.760;0.282;2022-07-24T08:54:50;2.88;;;2.33;;
12585;SDS011;6358;50.760;0.282;2022-07-24T08:57:16;3.60;;;2.38;;
12585;SDS011;6358;50.760;0.282;2022-07-24T08:59:43;2.47;;;2.08;;
12585;SDS011;6358;50.760;0.282;2022-07-24T09:02:09;2.78;;;2.17;;
12585;SDS011;6358;50.760;0.282;2022-07-24T09:04:45;3.13;;;2.20;;
12585;SDS011;6358;50.760;0.282;2022-07-24T09:07:13;2.10;;;1.90;;
12585;SDS011;6358;50.760;0.282;2022-07-24T09:09:40;4.28;;;2.00;;
12585;SDS011;6358;50.760;0.282;2022-07-24T09:14:33;3.30;;;1.90;;
12585;SDS011;6358;50.760;0.282;2022-07-24T09:17:07;2.65;;;1.80;;
12585;SDS011;6358;50.760;0.282;2022-07-24T09:27:32;2.10;;;1.90;;
12585;SDS011;6358;50.760;0.282;2022-07-24T09:29:59;2.33;;;1.98;;
12585;SDS011;6358;50.760;0.282;2022-07-24T09:32:25;2.22;;;2.03;;
12585;SDS011;6358;50.760;0.282;2022-07-24T09:34:52;4.65;;;1.85;;
12585;SDS011;6358;50.760;0.282;2022-07-24T09:37:19;4.88;;;1.90;;
12585;SDS011;6358;50.760;0.282;2022-07-24T09:39:46;2.53;;;2.05;;
12585;SDS011;6358;50.760;0.282;2022-07-24T09:42:12;6.55;;;3.30;;
12585;SDS011;6358;50.760;0.282;2022-07-24T09:44:39;5.68;;;2.90;;
12585;SDS011;6358;50.760;0.282;2022-07-24T09:47:09;6.82;;;3.05;;
12585;SDS011;6358;50.760;0.282;2022-07-24T09:49:36;2.58;;;2.10;;
12585;SDS011;6358;50.760;0.282;2022-07-24T09:52:21;2.95;;;2.10;;
12585;SDS011;6358;50.760;0.282;2022-07-24T09:54:49;5.22;;;2.25;;
12585;SDS011;6358;50.760;0.282;2022-07-24T09:57:16;2.80;;;2.08;;
12585;SDS011;6358;50.760;0.282;2022-07-24T09:59:54;3.40;;;2.25;;
12585;SDS011;6358;50.760;0.282;2022-07-24T10:02:22;3.58;;;2.00;;
12585;SDS011;6358;50.760;0.282;2022-07-24T10:04:49;3.35;;;1.88;;
12585;SDS011;6358;50.760;0.282;2022-07-24T10:07:16;3.78;;;2.10;;
12585;SDS011;6358;50.760;0.282;2022-07-24T10:09:43;3.00;;;2.17;;
12585;SDS011;6358;50.760;0.282;2022-07-24T10:12:11;3.35;;;2.40;;
12585;SDS011;6358;50.760;0.282;2022-07-24T10:14:38;2.42;;;2.03;;
12585;SDS011;6358;50.760;0.282;2022-07-24T10:17:06;2.22;;;2.00;;
12585;SDS011;6358;50.760;0.282;2022-07-24T10:19:51;3.92;;;2.10;;
12585;SDS011;6358;50.760;0.282;2022-07-24T10:22:18;3.63;;;1.88;;
12585;SDS011;6358;50.760;0.282;2022-07-24T10:27:16;3.17;;;2.03;;
12585;SDS011;6358;50.760;0.282;2022-07-24T10:29:47;2.75;;;2.25;;
12585;SDS011;6358;50.760;0.282;2022-07-24T10:32:13;2.00;;;1.75;;
12585;SDS011;6358;50.760;0.282;2022-07-24T10:58:50;1.88;;;1.60;;
12585;SDS011;6358;50.760;0.282;2022-07-24T11:09:14;1.63;;;1.52;;
12585;SDS011;6358;50.760;0.282;2022-07-24T11:14:25;4.32;;;1.70;;
12585;SDS011;6358;50.760;0.282;2022-07-24T11:16:52;2.10;;;1.90;;
12585;SDS011;6358;50.760;0.282;2022-07-24T11:21:45;1.42;;;1.33;;
12585;SDS011;6358;50.760;0.282;2022-07-24T11:26:54;1.58;;;1.48;;
12585;SDS011;6358;50.760;0.282;2022-07-24T11:29:57;2.75;;;1.65;;
12585;SDS011;6358;50.760;0.282;2022-07-24T11:32:16;1.50;;;1.40;;
12585;SDS011;6358;50.760;0.282;2022-07-24T11:34:46;1.45;;;1.33;;
12585;SDS011;6358;50.760;0.282;2022-07-24T11:37:13;2.30;;;1.60;;
12585;SDS011;6358;50.760;0.282;2022-07-24T11:39:39;1.60;;;1.50;;
12585;SDS011;6358;50.760;0.282;2022-07-24T11:42:06;1.50;;;1.38;;
12585;SDS011;6358;50.760;0.282;2022-07-24T11:47:09;3.47;;;1.60;;
12585;SDS011;6358;50.760;0.282;2022-07-24T11:49:45;2.17;;;1.52;;
12585;SDS011;6358;50.760;0.282;2022-07-24T11:52:19;1.75;;;1.45;;
12585;SDS011;6358;50.760;0.282;2022-07-24T11:54:46;2.00;;;1.65;;
12585;SDS011;6358;50.760;0.282;2022-07-24T11:57:16;1.50;;;1.40;;
12585;SDS011;6358;50.760;0.282;2022-07-24T11:59:44;2.17;;;1.55;;
12585;SDS011;6358;50.760;0.282;2022-07-24T12:02:10;2.00;;;1.42;;
12585;SDS011;6358;50.760;0.282;2022-07-24T12:04:38;1.85;;;1.30;;
12585;SDS011;6358;50.760;0.282;2022-07-24T12:07:08;1.75;;;1.50;;
12585;SDS011;6358;50.760;0.282;2022-07-24T12:09:47;1.88;;;1.45;;
12585;SDS011;6358;50.760;0.282;2022-07-24T12:12:17;1.58;;;1.48;;
12585;SDS011;6358;50.760;0.282;2022-07-24T12:14:43;1.63;;;1.52;;
12585;SDS011;6358;50.760;0.282;2022-07-24T12:17:10;1.83;;;1.63;;
12585;SDS011;6358;50.760;0.282;2022-07-24T12:19:36;1.63;;;1.40;;
12585;SDS011;6358;50.760;0.282;2022-07-24T12:22:02;1.50;;;1.40;;
12585;SDS011;6358;50.760;0.282;2022-07-24T12:24:30;1.70;;;1.60;;
12585;SDS011;6358;50.760;0.282;2022-07-24T12:26:57;1.85;;;1.45;;
12585;SDS011;6358;50.760;0.282;2022-07-24T12:29:25;1.35;;;1.25;;
12585;SDS011;6358;50.760;0.282;2022-07-24T12:31:53;1.58;;;1.48;;
12585;SDS011;6358;50.760;0.282;2022-07-24T12:34:19;1.67;;;1.42;;
12585;SDS011;6358;50.760;0.282;2022-07-24T12:36:45;1.63;;;1.52;;
12585;SDS011;6358;50.760;0.282;2022-07-24T12:39:11;1.40;;;1.30;;
12585;SDS011;6358;50.760;0.282;2022-07-24T12:41:42;1.23;;;1.23;;
12585;SDS011;6358;50.760;0.282;2022-07-24T12:44:09;1.52;;;1.42;;
12585;SDS011;6358;50.760;0.282;2022-07-24T12:46:36;1.58;;;1.48;;
12585;SDS011;6358;50.760;0.282;2022-07-24T12:49:03;1.77;;;1.60;;
12585;SDS011;6358;50.760;0.282;2022-07-24T12:54:18;2.03;;;1.50;;
12585;SDS011;6358;50.760;0.282;2022-07-24T12:56:45;1.55;;;1.45;;
12585;SDS011;6358;50.760;0.282;2022-07-24T13:02:18;2.17;;;1.73;;
12585;SDS011;6358;50.760;0.282;2022-07-24T13:04:44;1.63;;;1.48;;
12585;SDS011;6358;50.760;0.282;2022-07-24T13:07:11;1.70;;;1.60;;
12585;SDS011;6358;50.760;0.282;2022-07-24T13:09:37;1.65;;;1.55;;
12585;SDS011;6358;50.760;0.282;2022-07-24T13:12:03;1.95;;;1.60;;
12585;SDS011;6358;50.760;0.282;2022-07-24T13:14:30;1.77;;;1.55;;
12585;SDS011;6358;50.760;0.282;2022-07-24T13:17:01;1.77;;;1.55;;
12585;SDS011;6358;50.760;0.282;2022-07-24T13:19:27;1.60;;;1.50;;
12585;SDS011;6358;50.760;0.282;2022-07-24T13:21:53;2.60;;;1.60;;
12585;SDS011;6358;50.760;0.282;2022-07-24T13:24:19;2.60;;;1.52;;
12585;SDS011;6358;50.760;0.282;2022-07-24T13:26:45;2.45;;;1.90;;
12585;SDS011;6358;50.760;0.282;2022-07-24T13:29:12;2.55;;;1.58;;
12585;SDS011;6358;50.760;0.282;2022-07-24T13:31:39;1.98;;;1.80;;
12585;SDS011;6358;50.760;0.282;2022-07-24T13:34:06;1.80;;;1.70;;
12585;SDS011;6358;50.760;0.282;2022-07-24T13:36:33;2.22;;;1.65;;
12585;SDS011;6358;50.760;0.282;2022-07-24T13:38:59;1.73;;;1.63;;
12585;SDS011;6358;50.760;0.282;2022-07-24T13:41:25;1.85;;;1.55;;
12585;SDS011;6358;50.760;0.282;2022-07-24T13:43:52;1.75;;;1.58;;
12585;SDS011;6358;50.760;0.282;2022-07-24T13:46:18;2.00;;;1.48;;
12585;SDS011;6358;50.760;0.282;2022-07-24T13:48:44;1.88;;;1.58;;
12585;SDS011;6358;50.760;0.282;2022-07-24T13:51:11;2.22;;;1.80;;
12585;SDS011;6358;50.760;0.282;2022-07-24T13:53:37;1.50;;;1.40;;
12585;SDS011;6358;50.760;0.282;2022-07-24T13:56:04;1.60;;;1.50;;
12585;SDS011;6358;50.760;0.282;2022-07-24T13:58:31;2.38;;;1.60;;
12585;SDS011;6358;50.760;0.282;2022-07-24T14:00:58;1.70;;;1.30;;
12585;SDS011;6358;50.760;0.282;2022-07-24T14:03:24;4.03;;;1.50;;
12585;SDS011;6358;50.760;0.282;2022-07-24T14:05:51;1.88;;;1.50;;
12585;SDS011;6358;50.760;0.282;2022-07-24T14:08:17;2.53;;;1.70;;
12585;SDS011;6358;50.760;0.282;2022-07-24T14:10:43;1.50;;;1.40;;
12585;SDS011;6358;50.760;0.282;2022-07-24T14:13:09;1.90;;;1.50;;
12585;SDS011;6358;50.760;0.282;2022-07-24T14:15:36;2.58;;;1.50;;
12585;SDS011;6358;50.760;0.282;2022-07-24T14:18:02;2.47;;;1.60;;
12585;SDS011;6358;50.760;0.282;2022-07-24T14:20:28;2.17;;;1.60;;
12585;SDS011;6358;50.760;0.282;2022-07-24T14:22:55;1.88;;;1.40;;
12585;SDS011;6358;50.760;0.282;2022-07-24T14:25:21;1.80;;;1.52;;
12585;SDS011;6358;50.760;0.282;2022-07-24T14:27:48;1.73;;;1.50;;
12585;SDS011;6358;50.760;0.282;2022-07-24T14:30:14;1.58;;;1.48;;
12585;SDS011;6358;50.760;0.282;2022-07-24T14:32:40;2.78;;;1.60;;
12585;SDS011;6358;50.760;0.282;2022-07-24T14:35:07;1.50;;;1.40;;
12585;SDS011;6358;50.760;0.282;2022-07-24T14:37:36;1.48;;;1.30;;
12585;SDS011;6358;50.760;0.282;2022-07-24T14:40:04;1.55;;;1.45;;
12585;SDS011;6358;50.760;0.282;2022-07-24T14:42:31;2.25;;;1.40;;
12585;SDS011;6358;50.760;0.282;2022-07-24T14:44:57;1.60;;;1.50;;
12585;SDS011;6358;50.760;0.282;2022-07-24T14:47:23;1.73;;;1.40;;
12585;SDS011;6358;50.760;0.282;2022-07-24T14:49:50;2.00;;;1.70;;
12585;SDS011;6358;50.760;0.282;2022-07-24T14:52:16;1.60;;;1.50;;
12585;SDS011;6358;50.760;0.282;2022-07-24T14:54:45;3.42;;;1.50;;
12585;SDS011;6358;50.760;0.282;2022-07-24T14:57:12;3.05;;;1.52;;
12585;SDS011;6358;50.760;0.282;2022-07-24T14:59:38;4.45;;;1.75;;
12585;SDS011;6358;50.760;0.282;2022-07-24T15:02:05;1.67;;;1.45;;
12585;SDS011;6358;50.760;0.282;2022-07-24T15:04:31;2.38;;;1.60;;
12585;SDS011;6358;50.760;0.282;2022-07-24T15:06:57;2.85;;;1.63;;
12585;SDS011;6358;50.760;0.282;2022-07-24T15:09:23;1.88;;;1.58;;
12585;SDS011;6358;50.760;0.282;2022-07-24T15:11:49;1.67;;;1.48;;
12585;SDS011;6358;50.760;0.282;2022-07-24T15:14:15;2.65;;;1.30;;
12585;SDS011;6358;50.760;0.282;2022-07-24T15:16:41;2.95;;;1.63;;
12585;SDS011;6358;50.760;0.282;2022-07-24T15:19:08;2.40;;;1.50;;
12585;SDS011;6358;50.760;0.282;2022-07-24T15:21:34;1.63;;;1.50;;
12585;SDS011;6358;50.760;0.282;2022-07-24T15:24:01;2.38;;;1.70;;
12585;SDS011;6358;50.760;0.282;2022-07-24T15:26:27;1.83;;;1.45;;
12585;SDS011;6358;50.760;0.282;2022-07-24T15:28:53;1.52;;;1.33;;
12585;SDS011;6358;50.760;0.282;2022-07-24T15:31:19;1.55;;;1.45;;
12585;SDS011;6358;50.760;0.282;2022-07-24T15:33:46;2.42;;;1.50;;
12585;SDS011;6358;50.760;0.282;2022-07-24T15:36:13;1.88;;;1.30;;
12585;SDS011;6358;50.760;0.282;2022-07-24T15:38:39;1.52;;;1.42;;
12585;SDS011;6358;50.760;0.282;2022-07-24T15:41:05;1.20;;;1.17;;
12585;SDS011;6358;50.760;0.282;2022-07-24T15:43:31;1.58;;;1.48;;
12585;SDS011;6358;50.760;0.282;2022-07-24T15:45:57;1.40;;;1.30;;
12585;SDS011;6358;50.760;0.282;2022-07-24T15:48:24;3.80;;;1.40;;
12585;SDS011;6358;50.760;0.282;2022-07-24T15:50:50;1.50;;;1.40;;
12585;SDS011;6358;50.760;0.282;2022-07-24T15:53:16;1.60;;;1.50;;
12585;SDS011;6358;50.760;0.282;2022-07-24T15:55:42;1.20;;;1.20;;
12585;SDS011;6358;50.760;0.282;2022-07-24T15:58:09;1.30;;;1.20;;